Time;durP1;ratioP1;P1;durP2;ratioP2;P2;SDS_P1;SDS_P2;PMS_P1;PMS_P2;Temp;Humidity;BMP_temperature;BMP_pressure;BME280_temperature;BME280_humidity;BME280_pressure;Samples;Min_cycle;Max_cycle;Signal;HPM_P1;HPM_P2
2022/11/23 00:01:18;;;;;;;30.80;24.25;;;7.60;99.90;;;;;;5092597;28;20369;-74
2022/11/23 00:03:45;;;;;;;33.92;26.65;;;7.60;99.90;;;;;;5091529;28;20048;-77
2022/11/23 00:06:12;;;;;;;30.35;23.52;;;7.60;99.90;;;;;;5088783;28;20112;-75
2022/11/23 00:08:37;;;;;;;30.33;23.90;;;7.70;99.90;;;;;;5088438;28;20127;-76
2022/11/23 00:11:04;;;;;;;28.88;22.10;;;7.60;99.90;;;;;;5091974;28;20162;-75
2022/11/23 00:13:30;;;;;;;31.70;25.52;;;7.70;99.90;;;;;;5090443;28;20040;-74
2022/11/23 00:15:55;;;;;;;29.80;23.30;;;7.70;99.90;;;;;;5090539;28;20552;-76
2022/11/23 00:18:21;;;;;;;32.47;25.35;;;7.70;99.90;;;;;;5092189;28;20044;-75
2022/11/23 00:20:47;;;;;;;29.63;23.75;;;7.70;99.90;;;;;;5089196;28;20051;-74
2022/11/23 00:23:12;;;;;;;29.02;21.90;;;7.70;99.90;;;;;;5075260;28;20491;-76
2022/11/23 00:25:38;;;;;;;32.65;24.80;;;7.70;99.90;;;;;;5085955;28;20052;-75
2022/11/23 00:28:04;;;;;;;33.55;24.27;;;7.70;99.90;;;;;;5093625;28;20063;-74
2022/11/23 00:30:30;;;;;;;31.35;23.40;;;7.70;99.90;;;;;;5074691;28;20523;-75
2022/11/23 00:32:55;;;;;;;33.08;25.67;;;7.70;99.90;;;;;;5074734;28;20483;-75
2022/11/23 00:35:22;;;;;;;28.52;21.02;;;7.70;99.90;;;;;;5073908;28;20040;-75
2022/11/23 00:37:47;;;;;;;29.33;22.70;;;7.80;99.90;;;;;;5087750;28;20044;-75
2022/11/23 00:40:13;;;;;;;33.60;25.85;;;7.70;99.90;;;;;;5088623;28;20117;-76
2022/11/23 00:42:39;;;;;;;32.30;25.30;;;7.70;99.90;;;;;;5081951;28;20048;-75
2022/11/23 00:45:05;;;;;;;30.33;23.25;;;7.70;99.90;;;;;;5090703;28;20407;-76
2022/11/23 00:47:31;;;;;;;29.58;22.83;;;7.80;99.90;;;;;;5073704;28;20106;-74
2022/11/23 00:49:57;;;;;;;29.00;22.80;;;7.80;99.90;;;;;;5091483;28;20044;-75
2022/11/23 00:52:22;;;;;;;28.58;21.75;;;7.80;99.90;;;;;;5091286;28;20047;-75
2022/11/23 00:54:48;;;;;;;32.95;25.13;;;7.80;99.90;;;;;;5091348;28;20131;-74
2022/11/23 00:57:14;;;;;;;30.23;21.30;;;7.80;99.90;;;;;;5069656;28;20102;-75
2022/11/23 00:59:39;;;;;;;33.60;25.38;;;7.70;99.90;;;;;;5091922;28;20202;-75
2022/11/23 01:02:05;;;;;;;29.88;24.50;;;7.80;99.90;;;;;;5088103;28;20055;-74
2022/11/23 01:04:31;;;;;;;31.30;21.00;;;7.80;99.90;;;;;;5090345;28;21572;-74
2022/11/23 01:06:56;;;;;;;32.00;26.05;;;7.80;99.90;;;;;;5090472;28;20392;-74
2022/11/23 01:09:25;;;;;;;32.35;25.00;;;7.80;99.90;;;;;;5072447;28;20114;-74
2022/11/23 01:11:52;;;;;;;29.65;24.27;;;7.80;99.90;;;;;;5074065;28;20048;-74
2022/11/23 01:14:19;;;;;;;33.97;26.15;;;7.70;99.90;;;;;;5090632;28;20621;-76
2022/11/23 01:16:45;;;;;;;34.30;26.70;;;7.80;99.90;;;;;;5090075;28;20396;-73
2022/11/23 01:19:21;;;;;;;33.63;24.90;;;7.70;99.90;;;;;;5089824;28;20044;-75
2022/11/23 01:21:47;;;;;;;35.97;25.73;;;7.70;99.90;;;;;;5090746;28;20091;-74
2022/11/23 01:24:22;;;;;;;33.80;24.95;;;7.70;99.90;;;;;;5090448;28;20127;-74
2022/11/23 01:26:52;;;;;;;35.47;26.95;;;7.70;99.90;;;;;;5102725;28;20075;-75
2022/11/23 01:29:18;;;;;;;31.83;25.60;;;7.70;99.90;;;;;;5091028;28;20052;-75
2022/11/23 01:31:43;;;;;;;33.78;25.70;;;7.70;99.90;;;;;;5073833;28;20502;-74
2022/11/23 01:34:13;;;;;;;35.53;26.60;;;7.70;99.90;;;;;;5089011;28;20047;-74
2022/11/23 01:36:38;;;;;;;34.92;27.45;;;7.70;99.90;;;;;;5090127;28;20047;-75
2022/11/23 01:39:05;;;;;;;33.13;23.58;;;7.70;99.90;;;;;;5077329;28;20048;-76
2022/11/23 01:41:36;;;;;;;30.85;22.98;;;7.80;99.90;;;;;;5107426;28;20548;-74
2022/11/23 01:44:21;;;;;;;25.95;22.83;;;7.90;99.90;;;;;;5092433;28;20059;-76
2022/11/23 01:46:46;;;;;;;33.90;26.70;;;7.80;99.90;;;;;;5090286;28;20707;-75
2022/11/23 01:49:12;;;;;;;33.10;26.60;;;7.90;99.90;;;;;;5093524;28;20043;-75
2022/11/23 01:51:41;;;;;;;36.22;26.08;;;7.80;99.90;;;;;;5089420;28;20050;-74
2022/11/23 01:54:25;;;;;;;37.88;27.13;;;7.80;99.90;;;;;;5093298;28;20062;-74
2022/11/23 01:56:59;;;;;;;34.97;27.33;;;7.80;99.90;;;;;;5070552;28;20050;-74
2022/11/23 01:59:25;;;;;;;36.33;28.52;;;7.80;99.90;;;;;;5077004;28;20036;-74
2022/11/23 02:01:51;;;;;;;38.65;29.83;;;7.70;99.90;;;;;;5072946;28;20040;-76
2022/11/23 02:04:23;;;;;;;41.38;29.60;;;7.80;99.90;;;;;;5093466;28;20043;-75
2022/11/23 02:06:49;;;;;;;33.67;27.65;;;7.80;99.90;;;;;;5089079;28;20039;-76
2022/11/23 02:09:16;;;;;;;35.25;26.90;;;7.80;99.90;;;;;;5093409;28;20118;-74
2022/11/23 02:11:42;;;;;;;37.60;27.85;;;7.80;99.90;;;;;;5109793;28;20486;-74
2022/11/23 02:14:08;;;;;;;35.40;27.70;;;7.80;99.90;;;;;;5059414;28;20043;-73
2022/11/23 02:16:36;;;;;;;37.13;27.60;;;7.80;99.90;;;;;;5092498;28;20054;-74
2022/11/23 02:19:02;;;;;;;36.35;26.83;;;7.90;99.90;;;;;;5076652;28;20078;-74
2022/11/23 02:21:28;;;;;;;34.00;26.45;;;7.90;99.90;;;;;;5093158;28;20051;-75
2022/11/23 02:24:09;;;;;;;34.15;26.13;;;7.80;99.90;;;;;;5076485;28;20040;-75
2022/11/23 02:26:35;;;;;;;32.95;25.35;;;7.80;99.90;;;;;;5089941;28;20084;-73
2022/11/23 02:29:09;;;;;;;34.72;26.00;;;7.80;99.90;;;;;;5092995;28;20052;-74
2022/11/23 02:31:35;;;;;;;32.45;24.38;;;7.80;99.90;;;;;;5093091;28;20098;-74
2022/11/23 02:34:01;;;;;;;30.27;23.50;;;7.90;99.90;;;;;;5092885;28;20036;-74
2022/11/23 02:36:43;;;;;;;27.40;21.30;;;8.00;99.90;;;;;;5084908;28;20069;-74
2022/11/23 02:39:17;;;;;;;;;;;8.00;99.90;;;;;;5106729;28;20090;-74
2022/11/23 02:41:47;;;;;;;29.83;22.92;;;8.00;99.90;;;;;;5091423;28;19919;-74
2022/11/23 02:44:45;;;;;;;32.28;24.60;;;7.90;99.90;;;;;;5088880;28;20126;-75
2022/11/23 02:47:11;;;;;;;32.83;24.42;;;7.90;99.90;;;;;;5085781;28;20047;-73
2022/11/23 02:49:39;;;;;;;31.58;23.33;;;7.90;99.90;;;;;;5091726;28;20488;-74
2022/11/23 02:52:06;;;;;;;34.20;24.77;;;7.90;99.90;;;;;;5091649;28;20075;-73
2022/11/23 02:54:31;;;;;;;35.50;25.88;;;7.90;99.90;;;;;;5090697;28;20055;-73
2022/11/23 02:56:57;;;;;;;32.83;25.05;;;7.90;99.90;;;;;;5074065;28;20048;-73
2022/11/23 02:59:23;;;;;;;37.63;25.10;;;7.80;99.90;;;;;;5076243;28;20050;-74
2022/11/23 03:01:49;;;;;;;34.13;23.77;;;7.80;99.90;;;;;;5089042;28;20040;-73
2022/11/23 03:04:14;;;;;;;30.08;23.80;;;7.80;99.90;;;;;;5110530;28;20524;-74
2022/11/23 03:06:41;;;;;;;31.35;23.08;;;7.90;99.90;;;;;;5110203;28;20043;-73
2022/11/23 03:09:07;;;;;;;31.52;23.38;;;7.80;99.90;;;;;;5073133;28;20067;-74
2022/11/23 03:11:32;;;;;;;33.42;23.42;;;7.90;99.90;;;;;;5104862;28;20040;-73
2022/11/23 03:13:59;;;;;;;28.70;20.55;;;7.90;99.90;;;;;;5092546;28;20548;-74
2022/11/23 03:16:25;;;;;;;29.38;21.23;;;7.90;99.90;;;;;;5088275;28;20054;-74
2022/11/23 03:18:51;;;;;;;30.20;22.10;;;8.30;99.90;;;;;;5092142;28;20051;-74
2022/11/23 03:21:17;;;;;;;32.90;22.17;;;7.90;99.90;;;;;;5083321;28;20044;-73
2022/11/23 03:23:42;;;;;;;32.17;22.27;;;7.90;99.90;;;;;;5094536;28;20059;-74
2022/11/23 03:26:08;;;;;;;34.45;22.77;;;7.90;99.90;;;;;;5092873;28;20048;-73
2022/11/23 03:28:34;;;;;;;30.65;21.90;;;7.90;99.90;;;;;;5090495;28;20406;-74
2022/11/23 03:30:59;;;;;;;33.05;22.50;;;7.90;99.90;;;;;;5096100;28;20515;-74
2022/11/23 03:33:25;;;;;;;31.85;22.48;;;7.90;99.90;;;;;;5093460;28;20086;-74
2022/11/23 03:35:51;;;;;;;35.92;22.90;;;7.90;99.90;;;;;;5092189;28;20476;-73
2022/11/23 03:38:16;;;;;;;33.47;23.35;;;7.80;99.90;;;;;;5078561;28;20526;-73
2022/11/23 03:40:45;;;;;;;35.50;22.30;;;7.90;99.90;;;;;;5095266;28;20054;-73
2022/11/23 03:43:12;;;;;;;34.60;23.38;;;7.90;99.90;;;;;;5095480;28;20055;-73
2022/11/23 03:45:38;;;;;;;33.63;22.20;;;7.90;99.90;;;;;;5093663;28;20109;-73
2022/11/23 03:48:04;;;;;;;32.03;21.60;;;7.90;99.90;;;;;;5093885;28;20052;-74
2022/11/23 03:50:30;;;;;;;34.13;22.75;;;7.90;99.90;;;;;;5110467;28;20495;-74
2022/11/23 03:52:56;;;;;;;28.77;19.33;;;8.00;99.90;;;;;;5095379;28;20092;-75
2022/11/23 03:55:22;;;;;;;36.60;23.20;;;8.00;99.90;;;;;;5094105;28;20058;-74
2022/11/23 03:57:48;;;;;;;33.88;21.90;;;8.00;99.90;;;;;;5078825;28;20043;-74
2022/11/23 04:00:14;;;;;;;35.22;22.83;;;8.00;99.90;;;;;;5095139;28;20044;-74
2022/11/23 04:02:41;;;;;;;34.55;23.17;;;8.00;99.90;;;;;;5095412;28;20348;-73
2022/11/23 04:05:07;;;;;;;38.08;24.05;;;8.00;99.90;;;;;;5076835;28;20509;-73
2022/11/23 04:07:33;;;;;;;38.65;23.83;;;8.00;99.90;;;;;;5063561;28;20048;-74
2022/11/23 04:09:58;;;;;;;39.33;24.77;;;8.00;99.90;;;;;;5079170;28;20058;-73
2022/11/23 04:12:25;;;;;;;40.88;25.05;;;8.00;99.90;;;;;;5094554;28;20044;-73
2022/11/23 04:14:51;;;;;;;42.10;25.35;;;8.00;99.90;;;;;;5091924;28;20063;-74
2022/11/23 04:17:17;;;;;;;40.75;25.02;;;8.00;99.90;;;;;;5077893;28;20495;-73
2022/11/23 04:19:42;;;;;;;42.15;25.67;;;8.00;99.90;;;;;;5092979;28;20043;-73
2022/11/23 04:22:08;;;;;;;40.00;25.15;;;8.10;99.90;;;;;;5076908;28;20162;-73
2022/11/23 04:24:34;;;;;;;41.65;25.85;;;8.10;99.90;;;;;;5073788;28;20127;-73
2022/11/23 04:26:59;;;;;;;44.92;26.30;;;8.10;99.90;;;;;;5093469;28;20104;-74
2022/11/23 04:29:25;;;;;;;40.10;24.70;;;8.10;99.90;;;;;;5095189;28;20051;-73
2022/11/23 04:31:51;;;;;;;40.00;25.98;;;8.10;99.90;;;;;;5094821;28;20088;-74
2022/11/23 04:34:17;;;;;;;41.70;25.67;;;8.10;99.90;;;;;;5094447;28;20047;-74
2022/11/23 04:36:43;;;;;;;43.22;25.95;;;8.10;99.90;;;;;;5075838;28;20052;-73
2022/11/23 04:39:12;;;;;;;39.95;24.88;;;8.10;99.90;;;;;;5095051;28;20391;-73
2022/11/23 04:41:38;;;;;;;43.63;25.88;;;8.10;99.90;;;;;;5093107;28;20039;-73
2022/11/23 04:44:04;;;;;;;46.90;25.80;;;8.00;99.90;;;;;;5058004;28;20055;-73
2022/11/23 04:46:30;;;;;;;45.00;26.48;;;8.10;99.90;;;;;;5056948;28;20048;-73
2022/11/23 04:48:56;;;;;;;42.75;25.27;;;8.00;99.90;;;;;;5094439;28;20074;-73
2022/11/23 04:51:22;;;;;;;44.80;25.83;;;8.00;99.90;;;;;;5093165;28;20070;-73
2022/11/23 04:53:48;;;;;;;41.38;24.55;;;8.00;99.90;;;;;;5091672;28;20047;-74
2022/11/23 04:56:14;;;;;;;42.95;24.10;;;8.00;99.90;;;;;;5059300;28;20051;-73
2022/11/23 04:58:40;;;;;;;39.22;23.85;;;8.00;99.90;;;;;;5094450;28;20036;-74
2022/11/23 05:01:05;;;;;;;37.65;23.45;;;8.10;99.90;;;;;;5091193;28;20078;-74
2022/11/23 05:03:33;;;;;;;39.42;23.48;;;8.00;99.90;;;;;;5095197;28;20055;-74
2022/11/23 05:06:01;;;;;;;35.13;22.48;;;8.10;99.90;;;;;;5093488;28;20371;-75
2022/11/23 05:08:27;;;;;;;37.38;23.30;;;8.10;99.90;;;;;;5094194;28;20104;-74
2022/11/23 05:10:52;;;;;;;34.33;22.33;;;8.10;99.90;;;;;;5073192;28;20403;-75
2022/11/23 05:13:18;;;;;;;33.85;22.20;;;8.10;99.90;;;;;;5094786;28;20074;-73
2022/11/23 05:15:44;;;;;;;37.30;22.83;;;8.20;99.90;;;;;;5088701;28;20097;-73
2022/11/23 05:18:10;;;;;;;38.00;23.42;;;8.10;99.90;;;;;;5094365;28;20194;-73
2022/11/23 05:20:36;;;;;;;37.08;22.85;;;8.10;99.90;;;;;;5094008;28;20395;-74
2022/11/23 05:23:03;;;;;;;37.30;22.75;;;8.10;99.90;;;;;;5094231;28;20046;-74
2022/11/23 05:25:28;;;;;;;34.92;22.23;;;8.10;99.90;;;;;;5091808;28;20108;-74
2022/11/23 05:27:54;;;;;;;33.80;21.80;;;8.10;99.90;;;;;;5076373;28;20044;-73
2022/11/23 05:30:20;;;;;;;39.85;21.70;;;8.10;99.90;;;;;;5106985;28;20108;-73
2022/11/23 05:32:46;;;;;;;35.83;21.55;;;8.00;99.90;;;;;;5093626;28;20438;-73
2022/11/23 05:35:12;;;;;;;38.03;21.05;;;8.00;99.90;;;;;;5111570;28;20043;-75
2022/11/23 05:37:38;;;;;;;33.88;19.17;;;8.00;99.90;;;;;;5092064;28;20153;-75
2022/11/23 05:40:04;;;;;;;34.45;18.75;;;8.00;99.90;;;;;;5073888;28;20056;-74
2022/11/23 05:42:30;;;;;;;34.88;18.23;;;8.00;99.90;;;;;;5090909;28;20480;-74
2022/11/23 05:44:56;;;;;;;33.42;18.55;;;8.00;99.90;;;;;;5092074;28;20127;-73
2022/11/23 05:47:22;;;;;;;29.52;17.00;;;8.00;99.90;;;;;;5092755;28;20075;-73
2022/11/23 05:49:49;;;;;;;36.05;17.45;;;8.00;99.90;;;;;;5093614;28;20043;-73
2022/11/23 05:52:14;;;;;;;27.98;16.42;;;8.00;99.90;;;;;;5089144;28;20048;-73
2022/11/23 05:54:40;;;;;;;25.10;16.00;;;8.10;99.90;;;;;;5090627;28;20039;-74
2022/11/23 05:57:06;;;;;;;25.10;15.35;;;7.90;99.90;;;;;;5092286;28;20130;-73
2022/11/23 05:59:32;;;;;;;27.40;15.38;;;7.90;99.90;;;;;;5094103;28;20047;-73
2022/11/23 06:01:57;;;;;;;26.90;15.38;;;7.90;99.90;;;;;;5059771;28;20043;-73
2022/11/23 06:04:23;;;;;;;26.48;13.85;;;7.90;99.90;;;;;;5074729;28;20117;-74
2022/11/23 06:06:48;;;;;;;22.08;13.32;;;7.90;99.90;;;;;;5092607;28;20049;-73
2022/11/23 06:09:14;;;;;;;23.70;13.27;;;7.80;99.90;;;;;;5107586;28;20093;-73
2022/11/23 06:11:40;;;;;;;27.77;13.30;;;7.80;99.90;;;;;;5072632;28;20419;-74
2022/11/23 06:14:06;;;;;;;23.67;12.98;;;7.70;99.90;;;;;;5075423;28;20055;-73
2022/11/23 06:16:31;;;;;;;21.85;12.40;;;7.70;99.90;;;;;;5091469;28;20058;-73
2022/11/23 06:18:57;;;;;;;22.55;11.23;;;7.70;99.90;;;;;;5075565;28;20047;-74
2022/11/23 06:21:23;;;;;;;19.73;10.32;;;7.70;99.90;;;;;;5090715;28;20075;-74
2022/11/23 06:23:49;;;;;;;24.60;10.88;;;7.70;99.90;;;;;;5093330;28;20044;-73
2022/11/23 06:26:14;;;;;;;20.73;9.90;;;7.60;99.90;;;;;;5073258;28;20044;-74
2022/11/23 06:28:40;;;;;;;21.77;9.88;;;7.50;99.90;;;;;;5093127;28;20060;-75
2022/11/23 06:31:06;;;;;;;21.30;10.05;;;7.50;99.90;;;;;;5092282;28;20055;-73
2022/11/23 06:33:35;;;;;;;20.20;9.68;;;7.40;99.90;;;;;;5087598;28;20067;-74
2022/11/23 06:36:02;;;;;;;19.33;9.00;;;7.40;99.90;;;;;;5090617;28;20081;-73
2022/11/23 06:38:28;;;;;;;21.60;9.23;;;7.30;99.90;;;;;;5091869;28;20050;-73
2022/11/23 06:41:01;;;;;;;20.67;8.95;;;7.30;99.90;;;;;;5091866;28;20044;-73
2022/11/23 06:43:27;;;;;;;21.38;9.40;;;7.30;99.90;;;;;;5074969;28;20395;-74
2022/11/23 06:45:54;;;;;;;20.67;8.80;;;7.20;99.90;;;;;;5074498;28;20035;-74
2022/11/23 06:48:20;;;;;;;24.15;9.75;;;7.20;99.90;;;;;;5075786;28;20035;-73
2022/11/23 06:50:46;;;;;;;18.60;9.35;;;7.10;99.90;;;;;;5092955;28;20059;-75
2022/11/23 06:53:12;;;;;;;20.40;9.15;;;7.20;99.90;;;;;;5093165;28;20036;-75
2022/11/23 06:55:38;;;;;;;21.42;9.35;;;7.10;99.90;;;;;;5091685;28;20317;-74
2022/11/23 06:58:04;;;;;;;20.35;9.48;;;7.10;99.90;;;;;;5079258;28;20126;-74
2022/11/23 07:00:31;;;;;;;17.38;8.95;;;7.10;99.90;;;;;;5096173;28;20048;-73
2022/11/23 07:02:59;;;;;;;25.38;10.15;;;7.10;99.90;;;;;;5059911;28;20048;-74
2022/11/23 07:05:25;;;;;;;19.92;9.57;;;7.10;99.90;;;;;;5094328;28;20176;-74
2022/11/23 07:07:51;;;;;;;19.58;9.82;;;7.20;99.90;;;;;;5096727;28;20040;-74
2022/11/23 07:10:17;;;;;;;17.05;9.70;;;7.30;99.90;;;;;;5094826;28;20119;-76
2022/11/23 07:12:42;;;;;;;21.58;10.68;;;7.30;99.90;;;;;;5095240;28;20428;-74
2022/11/23 07:15:09;;;;;;;21.90;10.13;;;7.30;99.90;;;;;;5073475;28;20065;-73
2022/11/23 07:17:39;;;;;;;21.00;10.30;;;7.20;99.90;;;;;;5086637;28;20052;-75
2022/11/23 07:20:09;;;;;;;20.77;10.38;;;7.30;99.90;;;;;;5093937;28;20224;-74
2022/11/23 07:22:35;;;;;;;24.58;11.25;;;7.10;99.90;;;;;;5024839;28;20056;-74
2022/11/23 07:25:01;;;;;;;24.85;11.32;;;7.20;99.90;;;;;;5074803;28;20047;-73
2022/11/23 07:27:27;;;;;;;18.08;9.50;;;7.10;99.90;;;;;;5094408;28;20100;-73
2022/11/23 07:29:53;;;;;;;21.77;10.45;;;7.20;99.90;;;;;;5077231;28;20498;-74
2022/11/23 07:32:18;;;;;;;23.55;10.52;;;7.20;99.90;;;;;;5073589;28;20043;-74
2022/11/23 07:34:44;;;;;;;21.77;10.23;;;7.20;99.90;;;;;;5095393;28;20070;-74
2022/11/23 07:37:10;;;;;;;25.48;11.20;;;7.20;99.90;;;;;;5080583;28;20039;-75
2022/11/23 07:39:35;;;;;;;21.75;10.98;;;7.20;99.90;;;;;;5080644;28;20422;-73
2022/11/23 07:42:01;;;;;;;25.30;11.20;;;7.20;99.90;;;;;;5088771;28;20058;-74
2022/11/23 07:44:27;;;;;;;26.58;11.30;;;7.40;99.90;;;;;;5090225;28;20043;-74
2022/11/23 07:46:53;;;;;;;22.02;10.48;;;7.30;99.90;;;;;;5091113;28;20127;-74
2022/11/23 07:49:19;;;;;;;24.10;10.85;;;7.30;99.90;;;;;;5090284;28;20040;-74
2022/11/23 07:51:45;;;;;;;22.92;10.20;;;7.40;99.90;;;;;;5076146;28;20096;-75
2022/11/23 07:54:11;;;;;;;21.55;9.75;;;7.40;99.90;;;;;;5097905;28;20043;-74
2022/11/23 07:56:36;;;;;;;23.63;9.32;;;7.50;99.90;;;;;;5083966;28;20503;-75
2022/11/23 07:59:02;;;;;;;19.15;9.88;;;7.60;99.90;;;;;;5113337;28;20039;-74
2022/11/23 08:01:28;;;;;;;22.55;9.40;;;7.60;99.90;;;;;;5097286;28;20039;-74
2022/11/23 08:03:53;;;;;;;22.95;9.15;;;7.60;99.90;;;;;;5097148;28;20491;-74
2022/11/23 08:06:19;;;;;;;23.92;10.10;;;7.70;99.90;;;;;;5080185;28;20058;-74
2022/11/23 08:08:45;;;;;;;20.65;9.30;;;7.70;99.90;;;;;;5095567;28;20051;-74
2022/11/23 08:11:13;;;;;;;20.23;8.82;;;7.70;99.90;;;;;;5096218;28;20476;-74
2022/11/23 08:13:40;;;;;;;20.75;8.88;;;7.70;99.90;;;;;;5097404;28;20047;-73
2022/11/23 08:16:06;;;;;;;18.83;8.30;;;7.70;99.90;;;;;;5084101;28;20461;-73
2022/11/23 08:18:31;;;;;;;18.98;8.73;;;7.80;99.90;;;;;;5077138;28;20036;-73
2022/11/23 08:21:01;;;;;;;21.27;9.07;;;7.80;99.90;;;;;;5059824;28;20043;-73
2022/11/23 08:23:27;;;;;;;21.63;9.27;;;7.90;99.90;;;;;;5086537;28;20040;-74
2022/11/23 08:25:52;;;;;;;22.90;9.27;;;7.90;99.90;;;;;;5083250;28;20119;-74
2022/11/23 08:28:18;;;;;;;23.00;8.90;;;7.90;99.90;;;;;;5097129;28;20403;-75
2022/11/23 08:30:44;;;;;;;23.85;9.07;;;8.00;99.90;;;;;;5096296;28;20044;-74
2022/11/23 08:33:11;;;;;;;22.25;8.93;;;8.00;99.90;;;;;;5090443;28;20044;-73
2022/11/23 08:35:38;;;;;;;18.92;9.18;;;8.10;99.90;;;;;;5072749;28;20071;-74
2022/11/23 08:38:05;;;;;;;19.63;7.22;;;8.10;99.90;;;;;;5082463;28;20044;-74
2022/11/23 08:40:31;;;;;;;21.95;8.43;;;8.10;99.90;;;;;;5085020;28;20519;-73
2022/11/23 08:42:57;;;;;;;22.58;8.52;;;8.20;99.90;;;;;;5079224;28;20044;-74
2022/11/23 08:45:23;;;;;;;20.63;8.65;;;8.20;99.90;;;;;;5096599;28;20054;-74
2022/11/23 08:47:49;;;;;;;17.73;8.40;;;8.20;99.90;;;;;;5077200;28;20054;-74
2022/11/23 08:50:15;;;;;;;24.40;8.57;;;8.20;99.90;;;;;;5089304;28;20063;-74
2022/11/23 08:52:41;;;;;;;17.70;8.50;;;8.10;99.90;;;;;;5089975;28;20052;-74
2022/11/23 08:55:07;;;;;;;20.60;8.10;;;8.20;99.90;;;;;;5065300;28;20059;-74
2022/11/23 08:57:33;;;;;;;20.77;8.23;;;8.30;99.90;;;;;;5096398;28;20058;-74
2022/11/23 08:59:59;;;;;;;21.98;7.95;;;8.30;99.90;;;;;;5084020;28;20048;-75
2022/11/23 09:02:25;;;;;;;20.92;7.85;;;8.30;99.90;;;;;;5090527;28;20047;-74
2022/11/23 09:04:50;;;;;;;20.13;7.55;;;8.40;99.90;;;;;;5076259;28;20044;-75
2022/11/23 09:07:16;;;;;;;19.42;7.07;;;8.40;99.90;;;;;;5092504;28;20052;-72
2022/11/23 09:09:42;;;;;;;18.95;6.65;;;8.50;99.90;;;;;;5071389;28;20060;-74
2022/11/23 09:12:07;;;;;;;18.83;6.57;;;8.60;99.90;;;;;;5088983;28;20048;-73
2022/11/23 09:14:33;;;;;;;17.52;5.65;;;8.70;99.90;;;;;;5096399;28;20123;-74
2022/11/23 09:17:02;;;;;;;19.13;6.68;;;8.70;99.90;;;;;;5083515;28;20101;-74
2022/11/23 09:19:28;;;;;;;18.00;6.30;;;8.80;99.90;;;;;;5094403;28;20051;-74
2022/11/23 09:21:54;;;;;;;18.77;6.03;;;8.90;99.90;;;;;;5095705;28;20141;-74
2022/11/23 09:24:21;;;;;;;20.35;6.22;;;8.90;99.90;;;;;;5095971;28;20051;-74
2022/11/23 09:26:48;;;;;;;18.63;5.95;;;9.00;99.90;;;;;;5074335;28;20551;-76
2022/11/23 09:29:13;;;;;;;20.20;5.70;;;8.90;99.90;;;;;;5058461;28;20060;-75
2022/11/23 09:31:39;;;;;;;16.15;4.88;;;8.90;99.90;;;;;;5113813;28;20093;-74
2022/11/23 09:34:05;;;;;;;17.55;5.30;;;8.90;99.90;;;;;;5064456;28;20044;-75
2022/11/23 09:36:31;;;;;;;18.30;5.10;;;8.90;99.90;;;;;;5089632;28;20381;-74
2022/11/23 09:38:56;;;;;;;17.67;4.60;;;8.80;99.90;;;;;;5071493;28;20054;-74
2022/11/23 09:41:52;;;;;;;20.48;4.68;;;8.90;99.90;;;;;;5089614;28;20173;-74
2022/11/23 09:44:43;;;;;;;20.98;4.93;;;8.80;99.90;;;;;;5106551;28;20510;-74
2022/11/23 09:47:59;;;;;;;21.38;4.90;;;8.80;99.90;;;;;;5095024;28;20059;-75
2022/11/23 09:50:55;;;;;;;20.23;4.88;;;8.80;99.90;;;;;;5079748;28;20066;-74
2022/11/23 09:53:36;;;;;;;17.52;4.65;;;8.80;99.90;;;;;;5090370;28;20048;-75
2022/11/23 09:56:02;;;;;;;16.67;4.90;;;8.80;99.90;;;;;;5091074;28;20101;-75
2022/11/23 09:58:38;;;;;;;13.93;4.68;;;8.80;99.90;;;;;;5089673;28;20134;-75
2022/11/23 10:01:09;;;;;;;18.58;4.55;;;8.80;99.90;;;;;;5095319;28;20039;-75
2022/11/23 10:03:37;;;;;;;19.60;4.87;;;8.90;99.90;;;;;;5080990;28;20047;-77
2022/11/23 10:06:19;;;;;;;19.98;4.97;;;8.90;99.90;;;;;;5098397;28;20043;-75
2022/11/23 10:09:20;;;;;;;17.85;4.65;;;8.90;99.90;;;;;;5095296;28;20092;-74
2022/11/23 10:12:07;;;;;;;19.80;4.82;;;8.90;99.90;;;;;;5066293;28;20082;-74
2022/11/23 10:14:48;;;;;;;17.77;4.32;;;8.90;99.90;;;;;;5081436;28;20044;-74
2022/11/23 10:17:41;;;;;;;15.15;4.30;;;8.90;99.90;;;;;;5080154;28;20104;-75
2022/11/23 10:20:32;;;;;;;18.85;4.40;;;8.90;99.90;;;;;;5077967;28;20407;-75
2022/11/23 10:23:00;;;;;;;17.20;3.92;;;8.90;99.90;;;;;;5077749;28;20445;-75
2022/11/23 10:25:37;;;;;;;15.07;3.72;;;8.90;99.90;;;;;;5094188;28;20056;-75
2022/11/23 10:28:11;;;;;;;18.23;4.30;;;8.90;99.90;;;;;;5094863;28;20097;-75
2022/11/23 10:30:37;;;;;;;17.55;4.15;;;8.90;99.90;;;;;;5112400;28;20051;-74
2022/11/23 10:33:16;;;;;;;21.15;4.15;;;8.90;99.90;;;;;;5080122;28;20047;-74
2022/11/23 10:35:42;;;;;;;18.58;4.20;;;8.90;99.90;;;;;;5081156;28;20040;-74
2022/11/23 10:38:16;;;;;;;17.85;4.18;;;8.90;99.90;;;;;;5094057;28;20031;-74
2022/11/23 10:40:57;;;;;;;17.27;4.40;;;8.80;99.90;;;;;;5081555;28;20044;-75
2022/11/23 10:43:26;;;;;;;17.60;3.97;;;8.90;99.90;;;;;;5081530;28;20085;-74
2022/11/23 10:46:30;;;;;;;16.10;4.07;;;8.80;99.90;;;;;;5094000;28;20049;-74
2022/11/23 10:49:16;;;;;;;19.55;4.45;;;8.90;99.90;;;;;;5087286;28;20051;-74
2022/11/23 10:51:53;;;;;;;16.60;4.13;;;8.90;99.90;;;;;;5093547;28;20450;-74
2022/11/23 10:54:27;;;;;;;15.02;3.80;;;9.00;99.90;;;;;;5087217;28;20094;-75
2022/11/23 10:56:54;;;;;;;15.57;3.67;;;9.10;99.90;;;;;;5088138;28;20376;-75
2022/11/23 10:59:32;;;;;;;16.40;3.97;;;9.10;99.90;;;;;;5095186;28;20042;-75
2022/11/23 11:02:29;;;;;;;15.05;3.38;;;9.20;99.90;;;;;;5091008;28;20044;-74
2022/11/23 11:05:21;;;;;;;16.20;3.63;;;9.20;99.90;;;;;;5087469;28;20546;-74
2022/11/23 11:07:47;;;;;;;19.48;3.55;;;9.40;99.90;;;;;;5081092;28;20507;-73
2022/11/23 11:10:39;;;;;;;15.32;3.15;;;9.50;99.90;;;;;;5080799;28;20131;-74
2022/11/23 11:13:22;;;;;;;13.90;2.95;;;9.70;99.90;;;;;;5074479;28;20078;-75
2022/11/23 11:15:52;;;;;;;15.18;3.30;;;9.90;99.90;;;;;;5076057;28;20665;-75
2022/11/23 11:18:18;;;;;;;17.10;3.53;;;9.90;99.90;;;;;;5085444;28;20032;-73
2022/11/23 11:20:44;;;;;;;18.48;3.60;;;10.00;99.90;;;;;;5058333;28;20430;-74
2022/11/23 11:23:20;;;;;;;11.57;3.25;;;10.00;99.90;;;;;;5086825;28;20047;-74
2022/11/23 11:25:48;;;;;;;16.30;3.28;;;10.00;99.90;;;;;;5072978;28;20048;-74
2022/11/23 11:28:39;;;;;;;15.95;3.67;;;9.90;99.90;;;;;;5077625;28;20495;-74
2022/11/23 11:31:30;;;;;;;13.95;3.30;;;9.90;99.90;;;;;;5086554;28;20132;-74
2022/11/23 11:34:18;;;;;;;12.73;2.92;;;9.90;99.90;;;;;;5081276;28;20543;-73
2022/11/23 11:37:06;;;;;;;17.85;3.40;;;9.90;99.90;;;;;;5082257;28;20044;-74
2022/11/23 11:39:56;;;;;;;13.65;3.00;;;9.90;99.90;;;;;;5079727;28;20047;-74
2022/11/23 11:43:01;;;;;;;14.48;3.00;;;9.90;99.90;;;;;;5082616;28;20407;-74
2022/11/23 11:45:38;;;;;;;14.13;2.60;;;10.00;99.90;;;;;;5077585;28;20052;-73
2022/11/23 11:48:13;;;;;;;13.00;2.90;;;10.00;99.90;;;;;;5094576;28;20035;-73
2022/11/23 11:51:08;;;;;;;12.70;2.90;;;10.00;99.90;;;;;;5097822;28;20046;-74
2022/11/23 11:53:50;;;;;;;13.35;3.08;;;10.00;99.90;;;;;;5089634;28;20052;-74
2022/11/23 11:56:29;;;;;;;12.30;2.75;;;10.10;99.90;;;;;;5091661;28;20051;-73
2022/11/23 11:59:21;;;;;;;12.77;2.63;;;10.00;99.90;;;;;;5094143;28;20067;-73
2022/11/23 12:01:49;;;;;;;14.63;2.90;;;10.20;99.90;;;;;;5067051;28;20051;-74
2022/11/23 12:04:34;;;;;;;14.40;3.00;;;10.20;99.90;;;;;;5091692;28;20058;-74
2022/11/23 12:07:11;;;;;;;14.70;3.15;;;10.10;99.90;;;;;;5086841;28;20051;-77
2022/11/23 12:09:43;;;;;;;12.85;2.83;;;10.20;99.90;;;;;;5097956;28;20104;-74
2022/11/23 12:12:17;;;;;;;11.77;2.60;;;10.20;99.90;;;;;;5076609;28;20044;-72
2022/11/23 12:14:45;;;;;;;12.93;2.78;;;10.20;99.90;;;;;;5084787;28;20400;-73
2022/11/23 12:17:35;;;;;;;12.18;3.15;;;10.20;99.90;;;;;;5096167;28;20051;-72
2022/11/23 12:20:19;;;;;;;13.32;2.85;;;10.20;99.90;;;;;;5082471;28;20413;-72
2022/11/23 12:23:01;;;;;;;14.50;2.90;;;10.20;99.90;;;;;;5097046;28;20044;-74
2022/11/23 12:25:35;;;;;;;11.07;2.53;;;10.20;99.90;;;;;;5087094;28;20094;-73
2022/11/23 12:28:38;;;;;;;10.95;2.53;;;10.20;99.90;;;;;;5090936;28;20060;-72
2022/11/23 12:31:16;;;;;;;16.85;3.08;;;10.10;99.90;;;;;;5093832;28;20048;-73
2022/11/23 12:34:00;;;;;;;11.70;2.72;;;10.30;99.90;;;;;;5097616;28;20039;-74
2022/11/23 12:37:00;;;;;;;14.73;2.28;;;10.30;99.90;;;;;;5091173;28;20047;-71
2022/11/23 12:39:39;;;;;;;12.02;2.50;;;10.50;99.90;;;;;;5090633;28;20124;-73
2022/11/23 12:42:31;;;;;;;11.63;2.55;;;10.30;99.90;;;;;;5082701;28;20044;-74
2022/11/23 12:45:21;;;;;;;14.40;2.60;;;10.20;99.90;;;;;;5066341;28;20090;-73
2022/11/23 12:48:08;;;;;;;10.70;2.22;;;10.20;99.90;;;;;;5082160;28;20403;-74
2022/11/23 12:50:46;;;;;;;11.85;2.20;;;10.20;99.90;;;;;;5115015;28;20131;-73
2022/11/23 12:53:35;;;;;;;12.65;2.58;;;10.20;99.90;;;;;;5096072;28;20058;-73
2022/11/23 12:56:19;;;;;;;12.82;2.40;;;10.20;99.90;;;;;;5096026;28;20399;-74